sensor_id;sensor_type;location;lat;lon;timestamp;P1;durP1;ratioP1;P2;durP2;ratioP2
41568;SDS011;27283;52.504;13.358;2022-08-07T00:00:59;4.82;;;2.17;;
41568;SDS011;27283;52.504;13.358;2022-08-07T00:03:51;6.80;;;2.28;;
41568;SDS011;27283;52.504;13.358;2022-08-07T00:06:27;4.20;;;2.10;;
41568;SDS011;27283;52.504;13.358;2022-08-07T00:09:01;5.50;;;2.15;;
41568;SDS011;27283;52.504;13.358;2022-08-07T00:11:47;4.47;;;2.33;;
41568;SDS011;27283;52.504;13.358;2022-08-07T00:14:26;5.88;;;2.30;;
41568;SDS011;27283;52.504;13.358;2022-08-07T00:16:59;6.32;;;2.40;;
41568;SDS011;27283;52.504;13.358;2022-08-07T00:19:33;5.70;;;2.35;;
41568;SDS011;27283;52.504;13.358;2022-08-07T00:22:28;8.63;;;3.00;;
41568;SDS011;27283;52.504;13.358;2022-08-07T00:25:03;4.65;;;2.17;;
41568;SDS011;27283;52.504;13.358;2022-08-07T00:27:44;6.90;;;2.33;;
41568;SDS011;27283;52.504;13.358;2022-08-07T00:30:21;6.63;;;2.38;;
41568;SDS011;27283;52.504;13.358;2022-08-07T00:32:55;5.65;;;2.58;;
41568;SDS011;27283;52.504;13.358;2022-08-07T00:35:30;4.03;;;2.17;;
41568;SDS011;27283;52.504;13.358;2022-08-07T00:38:06;4.47;;;2.30;;
41568;SDS011;27283;52.504;13.358;2022-08-07T00:40:40;5.13;;;2.40;;
41568;SDS011;27283;52.504;13.358;2022-08-07T00:43:13;8.07;;;2.97;;
41568;SDS011;27283;52.504;13.358;2022-08-07T00:46:05;6.57;;;2.30;;
41568;SDS011;27283;52.504;13.358;2022-08-07T00:48:38;5.63;;;2.40;;
41568;SDS011;27283;52.504;13.358;2022-08-07T00:51:10;6.43;;;2.40;;
41568;SDS011;27283;52.504;13.358;2022-08-07T00:53:45;5.18;;;2.38;;
41568;SDS011;27283;52.504;13.358;2022-08-07T00:56:23;5.85;;;2.67;;
41568;SDS011;27283;52.504;13.358;2022-08-07T00:58:57;6.57;;;2.60;;
41568;SDS011;27283;52.504;13.358;2022-08-07T01:01:30;5.43;;;2.22;;
41568;SDS011;27283;52.504;13.358;2022-08-07T01:04:12;5.70;;;2.45;;
41568;SDS011;27283;52.504;13.358;2022-08-07T01:06:52;5.65;;;2.53;;
41568;SDS011;27283;52.504;13.358;2022-08-07T01:09:28;4.85;;;2.30;;
41568;SDS011;27283;52.504;13.358;2022-08-07T01:12:21;5.53;;;3.03;;
41568;SDS011;27283;52.504;13.358;2022-08-07T01:14:57;6.30;;;2.80;;
41568;SDS011;27283;52.504;13.358;2022-08-07T01:17:31;5.47;;;2.40;;
41568;SDS011;27283;52.504;13.358;2022-08-07T01:20:08;8.27;;;2.70;;
41568;SDS011;27283;52.504;13.358;2022-08-07T01:22:47;6.13;;;2.60;;
41568;SDS011;27283;52.504;13.358;2022-08-07T01:25:40;4.00;;;2.28;;
41568;SDS011;27283;52.504;13.358;2022-08-07T01:28:23;5.82;;;2.78;;
41568;SDS011;27283;52.504;13.358;2022-08-07T01:30:57;5.18;;;2.58;;
41568;SDS011;27283;52.504;13.358;2022-08-07T01:33:34;5.78;;;2.60;;
41568;SDS011;27283;52.504;13.358;2022-08-07T01:36:23;5.78;;;2.67;;
41568;SDS011;27283;52.504;13.358;2022-08-07T01:39:06;7.55;;;2.35;;
41568;SDS011;27283;52.504;13.358;2022-08-07T01:41:38;5.35;;;2.10;;
41568;SDS011;27283;52.504;13.358;2022-08-07T01:44:32;6.47;;;2.33;;
41568;SDS011;27283;52.504;13.358;2022-08-07T01:47:05;5.18;;;2.58;;
41568;SDS011;27283;52.504;13.358;2022-08-07T01:49:58;8.52;;;2.63;;
41568;SDS011;27283;52.504;13.358;2022-08-07T01:52:30;4.18;;;2.30;;
41568;SDS011;27283;52.504;13.358;2022-08-07T01:55:20;5.82;;;2.60;;
41568;SDS011;27283;52.504;13.358;2022-08-07T01:57:56;5.18;;;3.03;;
41568;SDS011;27283;52.504;13.358;2022-08-07T02:00:52;6.30;;;2.47;;
41568;SDS011;27283;52.504;13.358;2022-08-07T02:03:38;4.70;;;2.80;;
41568;SDS011;27283;52.504;13.358;2022-08-07T02:06:18;4.15;;;2.30;;
41568;SDS011;27283;52.504;13.358;2022-08-07T02:09:00;6.80;;;2.40;;
41568;SDS011;27283;52.504;13.358;2022-08-07T02:11:43;6.07;;;2.63;;
41568;SDS011;27283;52.504;13.358;2022-08-07T02:14:32;6.15;;;2.65;;
41568;SDS011;27283;52.504;13.358;2022-08-07T02:17:09;6.57;;;2.85;;
41568;SDS011;27283;52.504;13.358;2022-08-07T02:19:55;7.65;;;2.90;;
41568;SDS011;27283;52.504;13.358;2022-08-07T02:22:34;5.55;;;3.00;;
41568;SDS011;27283;52.504;13.358;2022-08-07T02:25:11;5.45;;;2.45;;
41568;SDS011;27283;52.504;13.358;2022-08-07T02:27:48;8.38;;;2.92;;
41568;SDS011;27283;52.504;13.358;2022-08-07T02:30:22;5.10;;;2.53;;
41568;SDS011;27283;52.504;13.358;2022-08-07T02:32:55;5.93;;;3.00;;
41568;SDS011;27283;52.504;13.358;2022-08-07T02:35:36;6.93;;;2.80;;
41568;SDS011;27283;52.504;13.358;2022-08-07T02:38:31;6.18;;;2.67;;
41568;SDS011;27283;52.504;13.358;2022-08-07T02:41:18;5.60;;;2.92;;
41568;SDS011;27283;52.504;13.358;2022-08-07T02:44:07;7.05;;;2.70;;
41568;SDS011;27283;52.504;13.358;2022-08-07T02:46:42;7.05;;;2.85;;
41568;SDS011;27283;52.504;13.358;2022-08-07T02:49:20;5.38;;;2.72;;
41568;SDS011;27283;52.504;13.358;2022-08-07T02:52:14;7.32;;;2.95;;
41568;SDS011;27283;52.504;13.358;2022-08-07T02:54:59;7.22;;;3.05;;
41568;SDS011;27283;52.504;13.358;2022-08-07T02:57:55;4.90;;;2.85;;
41568;SDS011;27283;52.504;13.358;2022-08-07T03:00:40;6.40;;;2.75;;
41568;SDS011;27283;52.504;13.358;2022-08-07T03:03:15;4.38;;;2.80;;
41568;SDS011;27283;52.504;13.358;2022-08-07T03:05:51;4.65;;;2.70;;
41568;SDS011;27283;52.504;13.358;2022-08-07T03:08:25;6.38;;;2.92;;
41568;SDS011;27283;52.504;13.358;2022-08-07T03:10:57;5.63;;;3.13;;
41568;SDS011;27283;52.504;13.358;2022-08-07T03:13:32;6.40;;;3.00;;
41568;SDS011;27283;52.504;13.358;2022-08-07T03:16:20;4.72;;;2.67;;
41568;SDS011;27283;52.504;13.358;2022-08-07T03:18:55;9.23;;;2.90;;
41568;SDS011;27283;52.504;13.358;2022-08-07T03:21:28;5.50;;;2.88;;
41568;SDS011;27283;52.504;13.358;2022-08-07T03:24:04;7.75;;;3.38;;
41568;SDS011;27283;52.504;13.358;2022-08-07T03:26:54;6.38;;;2.85;;
41568;SDS011;27283;52.504;13.358;2022-08-07T03:29:38;8.55;;;3.40;;
41568;SDS011;27283;52.504;13.358;2022-08-07T03:32:22;8.43;;;2.80;;
41568;SDS011;27283;52.504;13.358;2022-08-07T03:34:58;8.50;;;3.17;;
41568;SDS011;27283;52.504;13.358;2022-08-07T03:37:49;8.70;;;3.22;;
41568;SDS011;27283;52.504;13.358;2022-08-07T03:40:24;7.95;;;3.38;;
41568;SDS011;27283;52.504;13.358;2022-08-07T03:43:03;6.75;;;3.25;;
41568;SDS011;27283;52.504;13.358;2022-08-07T03:45:41;5.95;;;3.00;;
41568;SDS011;27283;52.504;13.358;2022-08-07T03:48:18;7.03;;;3.40;;
41568;SDS011;27283;52.504;13.358;2022-08-07T03:50:52;6.65;;;2.92;;
41568;SDS011;27283;52.504;13.358;2022-08-07T03:53:25;7.15;;;3.47;;
41568;SDS011;27283;52.504;13.358;2022-08-07T03:56:18;9.90;;;3.63;;
41568;SDS011;27283;52.504;13.358;2022-08-07T03:59:01;11.27;;;5.15;;
41568;SDS011;27283;52.504;13.358;2022-08-07T04:01:40;7.72;;;3.58;;
41568;SDS011;27283;52.504;13.358;2022-08-07T04:04:17;6.80;;;3.22;;
41568;SDS011;27283;52.504;13.358;2022-08-07T04:06:50;8.27;;;3.20;;
41568;SDS011;27283;52.504;13.358;2022-08-07T04:09:27;7.75;;;3.22;;
41568;SDS011;27283;52.504;13.358;2022-08-07T04:12:17;9.13;;;3.63;;
41568;SDS011;27283;52.504;13.358;2022-08-07T04:14:56;8.57;;;3.53;;
41568;SDS011;27283;52.504;13.358;2022-08-07T04:17:31;7.70;;;3.35;;
41568;SDS011;27283;52.504;13.358;2022-08-07T04:20:26;6.63;;;3.33;;
41568;SDS011;27283;52.504;13.358;2022-08-07T04:23:02;7.55;;;3.30;;
41568;SDS011;27283;52.504;13.358;2022-08-07T04:25:45;8.18;;;3.10;;
41568;SDS011;27283;52.504;13.358;2022-08-07T04:28:20;9.93;;;3.60;;
41568;SDS011;27283;52.504;13.358;2022-08-07T04:30:52;7.30;;;3.20;;
41568;SDS011;27283;52.504;13.358;2022-08-07T04:33:26;9.23;;;3.10;;
41568;SDS011;27283;52.504;13.358;2022-08-07T04:36:05;8.32;;;3.22;;
41568;SDS011;27283;52.504;13.358;2022-08-07T04:38:38;10.27;;;3.83;;
41568;SDS011;27283;52.504;13.358;2022-08-07T04:41:11;8.98;;;3.30;;
41568;SDS011;27283;52.504;13.358;2022-08-07T04:43:46;8.13;;;3.30;;
41568;SDS011;27283;52.504;13.358;2022-08-07T04:46:38;5.82;;;3.45;;
41568;SDS011;27283;52.504;13.358;2022-08-07T04:49:37;8.65;;;3.40;;
41568;SDS011;27283;52.504;13.358;2022-08-07T04:52:29;8.52;;;3.40;;
41568;SDS011;27283;52.504;13.358;2022-08-07T04:55:15;12.35;;;3.58;;
41568;SDS011;27283;52.504;13.358;2022-08-07T04:58:17;7.60;;;3.50;;
41568;SDS011;27283;52.504;13.358;2022-08-07T05:01:15;5.60;;;3.13;;
41568;SDS011;27283;52.504;13.358;2022-08-07T05:04:01;4.70;;;3.00;;
41568;SDS011;27283;52.504;13.358;2022-08-07T05:06:48;6.05;;;2.80;;
41568;SDS011;27283;52.504;13.358;2022-08-07T05:09:40;5.32;;;2.88;;
41568;SDS011;27283;52.504;13.358;2022-08-07T05:12:18;6.60;;;2.90;;
41568;SDS011;27283;52.504;13.358;2022-08-07T05:15:01;5.10;;;2.55;;
41568;SDS011;27283;52.504;13.358;2022-08-07T05:17:52;5.60;;;3.20;;
41568;SDS011;27283;52.504;13.358;2022-08-07T05:20:37;6.70;;;3.00;;
41568;SDS011;27283;52.504;13.358;2022-08-07T05:23:12;5.53;;;3.10;;
41568;SDS011;27283;52.504;13.358;2022-08-07T05:26:00;5.57;;;3.00;;
41568;SDS011;27283;52.504;13.358;2022-08-07T05:28:44;5.45;;;2.67;;
41568;SDS011;27283;52.504;13.358;2022-08-07T05:31:19;3.65;;;2.55;;
41568;SDS011;27283;52.504;13.358;2022-08-07T05:34:02;5.38;;;2.53;;
41568;SDS011;27283;52.504;13.358;2022-08-07T05:36:41;8.15;;;2.70;;
41568;SDS011;27283;52.504;13.358;2022-08-07T05:39:21;8.10;;;2.70;;
41568;SDS011;27283;52.504;13.358;2022-08-07T05:42:16;8.50;;;3.00;;
41568;SDS011;27283;52.504;13.358;2022-08-07T05:45:02;5.82;;;2.45;;
41568;SDS011;27283;52.504;13.358;2022-08-07T05:47:56;5.15;;;2.50;;
41568;SDS011;27283;52.504;13.358;2022-08-07T05:50:30;4.68;;;2.80;;
41568;SDS011;27283;52.504;13.358;2022-08-07T05:53:10;5.10;;;2.17;;
41568;SDS011;27283;52.504;13.358;2022-08-07T05:56:02;3.63;;;2.10;;
41568;SDS011;27283;52.504;13.358;2022-08-07T05:58:42;5.63;;;2.30;;
41568;SDS011;27283;52.504;13.358;2022-08-07T06:01:20;5.63;;;2.40;;
41568;SDS011;27283;52.504;13.358;2022-08-07T06:04:02;4.38;;;2.10;;
41568;SDS011;27283;52.504;13.358;2022-08-07T06:06:36;6.13;;;2.10;;
41568;SDS011;27283;52.504;13.358;2022-08-07T06:09:15;5.88;;;2.25;;
41568;SDS011;27283;52.504;13.358;2022-08-07T06:12:08;4.07;;;1.90;;
41568;SDS011;27283;52.504;13.358;2022-08-07T06:14:45;4.13;;;2.08;;
41568;SDS011;27283;52.504;13.358;2022-08-07T06:17:18;3.05;;;1.80;;
41568;SDS011;27283;52.504;13.358;2022-08-07T06:20:06;3.30;;;1.80;;
41568;SDS011;27283;52.504;13.358;2022-08-07T06:22:59;6.13;;;2.03;;
41568;SDS011;27283;52.504;13.358;2022-08-07T06:26:01;4.75;;;1.98;;
41568;SDS011;27283;52.504;13.358;2022-08-07T06:28:37;4.00;;;1.83;;
41568;SDS011;27283;52.504;13.358;2022-08-07T06:31:22;5.88;;;1.98;;
41568;SDS011;27283;52.504;13.358;2022-08-07T06:34:15;4.80;;;1.85;;
41568;SDS011;27283;52.504;13.358;2022-08-07T06:36:49;5.22;;;1.95;;
41568;SDS011;27283;52.504;13.358;2022-08-07T06:39:21;3.35;;;1.65;;
41568;SDS011;27283;52.504;13.358;2022-08-07T06:42:14;4.75;;;1.80;;
41568;SDS011;27283;52.504;13.358;2022-08-07T06:45:03;5.15;;;2.08;;
41568;SDS011;27283;52.504;13.358;2022-08-07T06:47:48;4.35;;;1.80;;
41568;SDS011;27283;52.504;13.358;2022-08-07T06:50:27;4.65;;;1.83;;
41568;SDS011;27283;52.504;13.358;2022-08-07T06:53:03;6.95;;;2.20;;
41568;SDS011;27283;52.504;13.358;2022-08-07T06:55:57;3.58;;;1.85;;
41568;SDS011;27283;52.504;13.358;2022-08-07T06:58:35;3.95;;;1.70;;
41568;SDS011;27283;52.504;13.358;2022-08-07T07:01:30;8.38;;;1.70;;
41568;SDS011;27283;52.504;13.358;2022-08-07T07:04:14;6.32;;;1.95;;
41568;SDS011;27283;52.504;13.358;2022-08-07T07:07:01;3.60;;;1.50;;
41568;SDS011;27283;52.504;13.358;2022-08-07T07:09:54;5.03;;;1.70;;
41568;SDS011;27283;52.504;13.358;2022-08-07T07:12:30;3.17;;;1.90;;
41568;SDS011;27283;52.504;13.358;2022-08-07T07:15:16;3.90;;;1.42;;
41568;SDS011;27283;52.504;13.358;2022-08-07T07:18:01;4.00;;;1.67;;
41568;SDS011;27283;52.504;13.358;2022-08-07T07:20:44;3.67;;;1.88;;
41568;SDS011;27283;52.504;13.358;2022-08-07T07:23:22;3.67;;;1.60;;
41568;SDS011;27283;52.504;13.358;2022-08-07T07:26:17;4.10;;;1.75;;
41568;SDS011;27283;52.504;13.358;2022-08-07T07:29:04;3.38;;;2.00;;
41568;SDS011;27283;52.504;13.358;2022-08-07T07:32:02;6.43;;;2.22;;
41568;SDS011;27283;52.504;13.358;2022-08-07T07:34:41;6.88;;;2.55;;
41568;SDS011;27283;52.504;13.358;2022-08-07T07:37:20;3.95;;;2.17;;
41568;SDS011;27283;52.504;13.358;2022-08-07T07:40:15;4.53;;;2.30;;
41568;SDS011;27283;52.504;13.358;2022-08-07T07:42:53;7.90;;;2.50;;
41568;SDS011;27283;52.504;13.358;2022-08-07T07:45:46;5.50;;;2.30;;
41568;SDS011;27283;52.504;13.358;2022-08-07T07:48:40;4.35;;;2.10;;
41568;SDS011;27283;52.504;13.358;2022-08-07T07:51:16;5.43;;;2.10;;
41568;SDS011;27283;52.504;13.358;2022-08-07T07:53:52;4.82;;;1.98;;
41568;SDS011;27283;52.504;13.358;2022-08-07T07:56:29;6.63;;;1.90;;
41568;SDS011;27283;52.504;13.358;2022-08-07T07:59:03;5.47;;;1.83;;
41568;SDS011;27283;52.504;13.358;2022-08-07T08:01:37;4.80;;;1.73;;
41568;SDS011;27283;52.504;13.358;2022-08-07T08:04:32;3.72;;;1.60;;
41568;SDS011;27283;52.504;13.358;2022-08-07T08:07:08;4.72;;;1.73;;
41568;SDS011;27283;52.504;13.358;2022-08-07T08:09:50;4.75;;;1.65;;
41568;SDS011;27283;52.504;13.358;2022-08-07T08:12:32;3.72;;;1.73;;
41568;SDS011;27283;52.504;13.358;2022-08-07T08:15:25;4.20;;;1.58;;
41568;SDS011;27283;52.504;13.358;2022-08-07T08:18:19;4.63;;;1.42;;
41568;SDS011;27283;52.504;13.358;2022-08-07T08:20:56;4.18;;;1.80;;
41568;SDS011;27283;52.504;13.358;2022-08-07T08:23:34;4.22;;;1.63;;
41568;SDS011;27283;52.504;13.358;2022-08-07T08:26:23;3.35;;;1.58;;
41568;SDS011;27283;52.504;13.358;2022-08-07T08:29:07;2.20;;;1.38;;
41568;SDS011;27283;52.504;13.358;2022-08-07T08:31:43;3.38;;;1.60;;
41568;SDS011;27283;52.504;13.358;2022-08-07T08:34:37;3.38;;;1.25;;
41568;SDS011;27283;52.504;13.358;2022-08-07T08:37:14;14.82;;;1.80;;
41568;SDS011;27283;52.504;13.358;2022-08-07T08:40:09;6.45;;;1.48;;
41568;SDS011;27283;52.504;13.358;2022-08-07T08:42:59;2.80;;;1.58;;
41568;SDS011;27283;52.504;13.358;2022-08-07T08:45:43;3.05;;;1.90;;
41568;SDS011;27283;52.504;13.358;2022-08-07T08:48:31;4.80;;;1.38;;
41568;SDS011;27283;52.504;13.358;2022-08-07T08:51:13;2.95;;;1.52;;
41568;SDS011;27283;52.504;13.358;2022-08-07T08:54:13;4.88;;;1.40;;
41568;SDS011;27283;52.504;13.358;2022-08-07T08:56:52;2.95;;;1.50;;
41568;SDS011;27283;52.504;13.358;2022-08-07T08:59:30;4.38;;;1.48;;
41568;SDS011;27283;52.504;13.358;2022-08-07T09:02:18;5.70;;;1.50;;
41568;SDS011;27283;52.504;13.358;2022-08-07T09:05:28;3.03;;;1.38;;
41568;SDS011;27283;52.504;13.358;2022-08-07T09:08:12;4.00;;;1.30;;
41568;SDS011;27283;52.504;13.358;2022-08-07T09:11:00;7.55;;;1.80;;
41568;SDS011;27283;52.504;13.358;2022-08-07T09:14:04;4.13;;;1.60;;
41568;SDS011;27283;52.504;13.358;2022-08-07T09:16:47;6.43;;;1.77;;
41568;SDS011;27283;52.504;13.358;2022-08-07T09:19:42;4.55;;;1.52;;
41568;SDS011;27283;52.504;13.358;2022-08-07T09:22:28;2.92;;;1.30;;
41568;SDS011;27283;52.504;13.358;2022-08-07T09:25:38;3.28;;;1.60;;
41568;SDS011;27283;52.504;13.358;2022-08-07T09:28:26;3.85;;;1.40;;
41568;SDS011;27283;52.504;13.358;2022-08-07T09:31:29;5.05;;;1.58;;
41568;SDS011;27283;52.504;13.358;2022-08-07T09:34:21;4.35;;;1.30;;
41568;SDS011;27283;52.504;13.358;2022-08-07T09:37:02;3.17;;;1.50;;
41568;SDS011;27283;52.504;13.358;2022-08-07T09:39:44;3.33;;;1.52;;
41568;SDS011;27283;52.504;13.358;2022-08-07T09:42:33;3.42;;;1.40;;
41568;SDS011;27283;52.504;13.358;2022-08-07T09:45:19;2.50;;;1.23;;
41568;SDS011;27283;52.504;13.358;2022-08-07T09:48:27;3.72;;;1.58;;
41568;SDS011;27283;52.504;13.358;2022-08-07T09:51:44;5.10;;;1.42;;
41568;SDS011;27283;52.504;13.358;2022-08-07T09:54:45;7.35;;;1.63;;
41568;SDS011;27283;52.504;13.358;2022-08-07T09:57:33;4.38;;;1.65;;
41568;SDS011;27283;52.504;13.358;2022-08-07T10:00:23;2.97;;;1.27;;
41568;SDS011;27283;52.504;13.358;2022-08-07T10:06:33;5.28;;;1.60;;
41568;SDS011;27283;52.504;13.358;2022-08-07T10:12:45;3.33;;;1.40;;
41568;SDS011;27283;52.504;13.358;2022-08-07T10:18:33;4.28;;;1.45;;
41568;SDS011;27283;52.504;13.358;2022-08-07T10:21:23;3.42;;;1.60;;
41568;SDS011;27283;52.504;13.358;2022-08-07T10:27:40;5.78;;;1.73;;
41568;SDS011;27283;52.504;13.358;2022-08-07T10:30:25;2.05;;;1.40;;
41568;SDS011;27283;52.504;13.358;2022-08-07T10:36:24;2.45;;;1.30;;
41568;SDS011;27283;52.504;13.358;2022-08-07T10:39:08;3.97;;;1.50;;
41568;SDS011;27283;52.504;13.358;2022-08-07T10:41:56;4.57;;;1.58;;
41568;SDS011;27283;52.504;13.358;2022-08-07T10:44:51;2.92;;;1.40;;
41568;SDS011;27283;52.504;13.358;2022-08-07T10:47:44;2.88;;;1.30;;
41568;SDS011;27283;52.504;13.358;2022-08-07T10:50:30;2.85;;;1.40;;
41568;SDS011;27283;52.504;13.358;2022-08-07T10:53:21;2.88;;;1.30;;
41568;SDS011;27283;52.504;13.358;2022-08-07T10:56:13;2.75;;;1.30;;
41568;SDS011;27283;52.504;13.358;2022-08-07T10:59:14;3.45;;;1.40;;
41568;SDS011;27283;52.504;13.358;2022-08-07T11:02:06;5.72;;;1.20;;
41568;SDS011;27283;52.504;13.358;2022-08-07T11:05:06;3.33;;;1.52;;
41568;SDS011;27283;52.504;13.358;2022-08-07T11:07:49;3.47;;;1.30;;
41568;SDS011;27283;52.504;13.358;2022-08-07T11:10:32;3.17;;;1.45;;
41568;SDS011;27283;52.504;13.358;2022-08-07T11:13:14;3.78;;;1.40;;
41568;SDS011;27283;52.504;13.358;2022-08-07T11:16:14;3.97;;;1.50;;
41568;SDS011;27283;52.504;13.358;2022-08-07T11:18:59;2.42;;;1.50;;
41568;SDS011;27283;52.504;13.358;2022-08-07T11:21:37;2.22;;;1.38;;
41568;SDS011;27283;52.504;13.358;2022-08-07T11:24:18;3.05;;;1.73;;
41568;SDS011;27283;52.504;13.358;2022-08-07T11:26:55;5.25;;;1.88;;
41568;SDS011;27283;52.504;13.358;2022-08-07T11:29:49;3.90;;;1.65;;
41568;SDS011;27283;52.504;13.358;2022-08-07T11:32:50;2.58;;;1.27;;
41568;SDS011;27283;52.504;13.358;2022-08-07T11:35:28;3.42;;;1.50;;
41568;SDS011;27283;52.504;13.358;2022-08-07T11:38:25;7.13;;;2.40;;
41568;SDS011;27283;52.504;13.358;2022-08-07T11:41:08;5.18;;;1.40;;
41568;SDS011;27283;52.504;13.358;2022-08-07T11:43:57;4.53;;;1.65;;
41568;SDS011;27283;52.504;13.358;2022-08-07T11:46:48;3.05;;;1.63;;
41568;SDS011;27283;52.504;13.358;2022-08-07T11:49:45;2.95;;;1.50;;
41568;SDS011;27283;52.504;13.358;2022-08-07T11:53:00;2.33;;;1.23;;
41568;SDS011;27283;52.504;13.358;2022-08-07T11:55:47;2.88;;;1.48;;
41568;SDS011;27283;52.504;13.358;2022-08-07T11:58:58;4.03;;;1.40;;
41568;SDS011;27283;52.504;13.358;2022-08-07T12:02:11;3.70;;;1.35;;
41568;SDS011;27283;52.504;13.358;2022-08-07T12:09:21;4.68;;;1.30;;
41568;SDS011;27283;52.504;13.358;2022-08-07T12:12:36;4.13;;;1.48;;
41568;SDS011;27283;52.504;13.358;2022-08-07T12:15:32;3.35;;;1.52;;
41568;SDS011;27283;52.504;13.358;2022-08-07T12:18:45;3.10;;;1.60;;
41568;SDS011;27283;52.504;13.358;2022-08-07T12:21:32;4.32;;;1.30;;
41568;SDS011;27283;52.504;13.358;2022-08-07T12:24:33;5.50;;;1.52;;
41568;SDS011;27283;52.504;13.358;2022-08-07T12:27:36;3.20;;;1.20;;
41568;SDS011;27283;52.504;13.358;2022-08-07T12:30:34;3.08;;;1.30;;
41568;SDS011;27283;52.504;13.358;2022-08-07T12:33:20;3.75;;;1.33;;
41568;SDS011;27283;52.504;13.358;2022-08-07T12:36:16;1.88;;;1.17;;
41568;SDS011;27283;52.504;13.358;2022-08-07T12:39:04;3.35;;;1.40;;
41568;SDS011;27283;52.504;13.358;2022-08-07T12:41:56;3.58;;;1.42;;
41568;SDS011;27283;52.504;13.358;2022-08-07T12:44:34;2.72;;;1.50;;
41568;SDS011;27283;52.504;13.358;2022-08-07T12:47:23;3.55;;;1.42;;
41568;SDS011;27283;52.504;13.358;2022-08-07T12:50:07;2.42;;;1.23;;
41568;SDS011;27283;52.504;13.358;2022-08-07T12:53:11;3.05;;;1.50;;
41568;SDS011;27283;52.504;13.358;2022-08-07T12:55:55;3.75;;;1.38;;
41568;SDS011;27283;52.504;13.358;2022-08-07T12:58:37;3.95;;;1.30;;
41568;SDS011;27283;52.504;13.358;2022-08-07T13:01:31;4.22;;;1.33;;
41568;SDS011;27283;52.504;13.358;2022-08-07T13:04:27;4.43;;;1.50;;
41568;SDS011;27283;52.504;13.358;2022-08-07T13:07:51;5.47;;;1.42;;
41568;SDS011;27283;52.504;13.358;2022-08-07T13:11:02;2.53;;;1.30;;
41568;SDS011;27283;52.504;13.358;2022-08-07T13:13:52;2.53;;;1.50;;
41568;SDS011;27283;52.504;13.358;2022-08-07T13:16:36;3.13;;;1.40;;
41568;SDS011;27283;52.504;13.358;2022-08-07T13:19:22;4.60;;;1.52;;
41568;SDS011;27283;52.504;13.358;2022-08-07T13:22:23;3.58;;;1.40;;
41568;SDS011;27283;52.504;13.358;2022-08-07T13:25:02;3.15;;;1.30;;
41568;SDS011;27283;52.504;13.358;2022-08-07T13:27:55;2.17;;;1.40;;
41568;SDS011;27283;52.504;13.358;2022-08-07T13:30:48;5.05;;;1.30;;
41568;SDS011;27283;52.504;13.358;2022-08-07T13:33:31;2.80;;;1.30;;
41568;SDS011;27283;52.504;13.358;2022-08-07T13:36:38;2.63;;;1.17;;
41568;SDS011;27283;52.504;13.358;2022-08-07T13:39:16;3.60;;;1.30;;
41568;SDS011;27283;52.504;13.358;2022-08-07T13:42:17;3.65;;;1.45;;
41568;SDS011;27283;52.504;13.358;2022-08-07T13:44:57;3.15;;;1.25;;
41568;SDS011;27283;52.504;13.358;2022-08-07T13:47:51;4.00;;;1.42;;
41568;SDS011;27283;52.504;13.358;2022-08-07T13:50:36;3.70;;;1.42;;
41568;SDS011;27283;52.504;13.358;2022-08-07T13:53:32;2.78;;;1.40;;
41568;SDS011;27283;52.504;13.358;2022-08-07T13:56:28;3.75;;;1.42;;
41568;SDS011;27283;52.504;13.358;2022-08-07T13:59:19;2.22;;;1.33;;
41568;SDS011;27283;52.504;13.358;2022-08-07T14:01:59;1.58;;;1.10;;
41568;SDS011;27283;52.504;13.358;2022-08-07T14:04:44;2.83;;;1.40;;
41568;SDS011;27283;52.504;13.358;2022-08-07T14:07:22;2.97;;;1.40;;
41568;SDS011;27283;52.504;13.358;2022-08-07T14:10:00;3.53;;;1.40;;
41568;SDS011;27283;52.504;13.358;2022-08-07T14:12:53;3.40;;;1.25;;
41568;SDS011;27283;52.504;13.358;2022-08-07T14:15:29;1.98;;;1.15;;
41568;SDS011;27283;52.504;13.358;2022-08-07T14:18:13;2.45;;;1.30;;
41568;SDS011;27283;52.504;13.358;2022-08-07T14:21:06;3.50;;;1.10;;
41568;SDS011;27283;52.504;13.358;2022-08-07T14:24:02;2.08;;;1.48;;
41568;SDS011;27283;52.504;13.358;2022-08-07T14:26:40;3.22;;;1.35;;
41568;SDS011;27283;52.504;13.358;2022-08-07T14:29:19;3.00;;;1.33;;
41568;SDS011;27283;52.504;13.358;2022-08-07T14:32:14;2.20;;;1.30;;
41568;SDS011;27283;52.504;13.358;2022-08-07T14:38:08;3.00;;;1.23;;
41568;SDS011;27283;52.504;13.358;2022-08-07T14:40:58;3.97;;;1.67;;
41568;SDS011;27283;52.504;13.358;2022-08-07T14:43:40;2.92;;;1.55;;
41568;SDS011;27283;52.504;13.358;2022-08-07T14:46:26;7.97;;;2.00;;
41568;SDS011;27283;52.504;13.358;2022-08-07T14:49:00;3.10;;;1.42;;
41568;SDS011;27283;52.504;13.358;2022-08-07T14:51:56;4.35;;;1.55;;
41568;SDS011;27283;52.504;13.358;2022-08-07T14:54:50;4.28;;;1.70;;
41568;SDS011;27283;52.504;13.358;2022-08-07T14:57:25;3.42;;;1.48;;
41568;SDS011;27283;52.504;13.358;2022-08-07T16:06:57;4.45;;;1.92;;
41568;SDS011;27283;52.504;13.358;2022-08-07T16:10:21;3.53;;;1.33;;
41568;SDS011;27283;52.504;13.358;2022-08-07T16:13:22;3.50;;;1.23;;
41568;SDS011;27283;52.504;13.358;2022-08-07T16:16:59;4.75;;;1.73;;
41568;SDS011;27283;52.504;13.358;2022-08-07T16:23:11;3.53;;;1.38;;
41568;SDS011;27283;52.504;13.358;2022-08-07T16:26:09;6.45;;;1.83;;
41568;SDS011;27283;52.504;13.358;2022-08-07T16:29:02;2.60;;;1.23;;
41568;SDS011;27283;52.504;13.358;2022-08-07T16:32:04;4.63;;;1.58;;
41568;SDS011;27283;52.504;13.358;2022-08-07T16:35:32;4.53;;;1.85;;
41568;SDS011;27283;52.504;13.358;2022-08-07T16:38:34;3.53;;;1.25;;
41568;SDS011;27283;52.504;13.358;2022-08-07T16:44:31;4.47;;;1.45;;
41568;SDS011;27283;52.504;13.358;2022-08-07T16:51:22;4.07;;;1.45;;
41568;SDS011;27283;52.504;13.358;2022-08-07T16:54:28;3.53;;;1.58;;
41568;SDS011;27283;52.504;13.358;2022-08-07T16:57:28;2.28;;;1.20;;
41568;SDS011;27283;52.504;13.358;2022-08-07T17:00:22;4.95;;;1.92;;
41568;SDS011;27283;52.504;13.358;2022-08-07T17:03:17;4.97;;;2.08;;
41568;SDS011;27283;52.504;13.358;2022-08-07T17:10:20;3.33;;;1.55;;
41568;SDS011;27283;52.504;13.358;2022-08-07T17:13:29;2.75;;;1.83;;
41568;SDS011;27283;52.504;13.358;2022-08-07T17:16:46;4.53;;;1.55;;
41568;SDS011;27283;52.504;13.358;2022-08-07T17:19:48;4.88;;;1.70;;
41568;SDS011;27283;52.504;13.358;2022-08-07T17:22:53;3.88;;;1.40;;
41568;SDS011;27283;52.504;13.358;2022-08-07T17:25:40;5.30;;;1.60;;
41568;SDS011;27283;52.504;13.358;2022-08-07T17:29:58;4.05;;;1.83;;
41568;SDS011;27283;52.504;13.358;2022-08-07T17:32:51;5.57;;;1.88;;
41568;SDS011;27283;52.504;13.358;2022-08-07T17:35:55;4.70;;;1.60;;
41568;SDS011;27283;52.504;13.358;2022-08-07T17:38:31;4.03;;;1.50;;
41568;SDS011;27283;52.504;13.358;2022-08-07T17:41:15;4.70;;;1.65;;
41568;SDS011;27283;52.504;13.358;2022-08-07T17:44:10;3.08;;;1.70;;
41568;SDS011;27283;52.504;13.358;2022-08-07T17:47:10;1.88;;;1.30;;
41568;SDS011;27283;52.504;13.358;2022-08-07T17:50:10;2.78;;;1.60;;
41568;SDS011;27283;52.504;13.358;2022-08-07T17:52:49;5.47;;;1.77;;
41568;SDS011;27283;52.504;13.358;2022-08-07T17:55:28;5.53;;;1.70;;
41568;SDS011;27283;52.504;13.358;2022-08-07T17:58:34;6.30;;;2.00;;
41568;SDS011;27283;52.504;13.358;2022-08-07T18:01:15;5.78;;;2.90;;
41568;SDS011;27283;52.504;13.358;2022-08-07T18:04:07;4.90;;;2.03;;
41568;SDS011;27283;52.504;13.358;2022-08-07T18:06:55;3.75;;;1.70;;
41568;SDS011;27283;52.504;13.358;2022-08-07T18:09:53;4.00;;;1.50;;
41568;SDS011;27283;52.504;13.358;2022-08-07T18:12:46;5.80;;;1.83;;
41568;SDS011;27283;52.504;13.358;2022-08-07T18:15:45;4.68;;;1.85;;